KAIO

Atlantic Municipal Airport

Atlantic, Iowa, USA
METAR KAIO 221515Z AUTO 15009KT 10SM CLR 13/08 A3030 RMK AO2
Observed Flight Rules
Sep-22 @ 15:15 UTC (21 minutes ago) Visual Flight Rules
Wind Visibility Clouds
150° at 9 knots 10 miles
Temperatures Readings
Current 13°C / 55°F
Dewpoint 8°C / 46°F
Humidity 72%
Altimeter 30.3" Hg
Pressure 1026 hPa
Elevation 360
METAR KAIO 221515Z AUTO 15009KT 10SM CLR 13/08 A3030 RMK AO2
Observed Flight Rules
Sep-22 @ 15:15 UTC
(21 minutes ago)
VFR
Wind Visibility
150° at 9 knots 10 miles
Clouds
Temperature Dewpoint
13°C / 55°F 8°C / 46°F
Humidity Altimeter Pressure
72% 30.3" Hg 1026 hPa